sensor_id;sensor_type;location;lat;lon;timestamp;temperature;humidity
610;DHT22;292;48.800;9.216;2023-11-19T00:01:04;10.80;84.50
610;DHT22;292;48.800;9.216;2023-11-19T00:03:32;10.90;84.70
610;DHT22;292;48.800;9.216;2023-11-19T00:06:01;10.80;84.90
610;DHT22;292;48.800;9.216;2023-11-19T00:08:30;10.80;85.20
610;DHT22;292;48.800;9.216;2023-11-19T00:10:57;10.80;85.40
610;DHT22;292;48.800;9.216;2023-11-19T00:13:24;10.80;85.40
610;DHT22;292;48.800;9.216;2023-11-19T00:15:51;10.80;85.40
610;DHT22;292;48.800;9.216;2023-11-19T00:18:19;10.80;85.50
610;DHT22;292;48.800;9.216;2023-11-19T00:20:46;10.80;85.70
610;DHT22;292;48.800;9.216;2023-11-19T00:23:13;10.80;85.80
610;DHT22;292;48.800;9.216;2023-11-19T00:25:42;10.80;86.00
610;DHT22;292;48.800;9.216;2023-11-19T00:28:10;10.80;86.20
610;DHT22;292;48.800;9.216;2023-11-19T00:30:37;10.80;86.40
610;DHT22;292;48.800;9.216;2023-11-19T00:33:04;10.80;86.70
610;DHT22;292;48.800;9.216;2023-11-19T00:35:31;10.80;86.70
610;DHT22;292;48.800;9.216;2023-11-19T00:37:58;10.80;87.00
610;DHT22;292;48.800;9.216;2023-11-19T00:40:26;10.80;87.10
610;DHT22;292;48.800;9.216;2023-11-19T00:42:54;10.80;87.30
610;DHT22;292;48.800;9.216;2023-11-19T00:45:21;10.80;87.40
610;DHT22;292;48.800;9.216;2023-11-19T00:47:49;10.80;87.50
610;DHT22;292;48.800;9.216;2023-11-19T00:50:16;10.80;87.80
610;DHT22;292;48.800;9.216;2023-11-19T00:52:43;10.80;88.10
610;DHT22;292;48.800;9.216;2023-11-19T00:55:10;10.80;88.30
610;DHT22;292;48.800;9.216;2023-11-19T00:57:38;10.90;88.40
610;DHT22;292;48.800;9.216;2023-11-19T01:00:08;10.90;88.40
610;DHT22;292;48.800;9.216;2023-11-19T01:02:44;10.90;88.70
610;DHT22;292;48.800;9.216;2023-11-19T01:05:11;10.90;89.00
610;DHT22;292;48.800;9.216;2023-11-19T01:07:39;11.00;89.10
610;DHT22;292;48.800;9.216;2023-11-19T01:10:07;11.00;89.30
610;DHT22;292;48.800;9.216;2023-11-19T01:12:35;11.10;89.30
610;DHT22;292;48.800;9.216;2023-11-19T01:15:06;11.10;89.40
610;DHT22;292;48.800;9.216;2023-11-19T01:17:33;11.20;89.30
610;DHT22;292;48.800;9.216;2023-11-19T01:20:00;11.20;89.40
610;DHT22;292;48.800;9.216;2023-11-19T01:22:27;11.20;89.40
610;DHT22;292;48.800;9.216;2023-11-19T01:24:54;11.20;89.70
610;DHT22;292;48.800;9.216;2023-11-19T01:27:20;11.30;89.40
610;DHT22;292;48.800;9.216;2023-11-19T01:29:47;11.30;89.40
610;DHT22;292;48.800;9.216;2023-11-19T01:32:16;11.30;89.60
610;DHT22;292;48.800;9.216;2023-11-19T01:34:43;11.40;89.40
610;DHT22;292;48.800;9.216;2023-11-19T01:37:10;11.40;89.60
610;DHT22;292;48.800;9.216;2023-11-19T01:39:38;11.40;89.30
610;DHT22;292;48.800;9.216;2023-11-19T01:42:05;11.50;89.40
610;DHT22;292;48.800;9.216;2023-11-19T01:44:32;11.50;89.40
610;DHT22;292;48.800;9.216;2023-11-19T01:46:59;11.50;89.40
610;DHT22;292;48.800;9.216;2023-11-19T01:49:29;11.50;89.40
610;DHT22;292;48.800;9.216;2023-11-19T01:51:57;11.60;89.30
610;DHT22;292;48.800;9.216;2023-11-19T01:54:24;11.60;89.30
610;DHT22;292;48.800;9.216;2023-11-19T01:56:53;11.60;89.40
610;DHT22;292;48.800;9.216;2023-11-19T01:59:23;11.60;89.10
610;DHT22;292;48.800;9.216;2023-11-19T02:01:52;11.70;89.10
610;DHT22;292;48.800;9.216;2023-11-19T02:04:20;11.70;89.00
610;DHT22;292;48.800;9.216;2023-11-19T02:06:48;11.70;89.30
610;DHT22;292;48.800;9.216;2023-11-19T02:09:18;11.70;88.70
610;DHT22;292;48.800;9.216;2023-11-19T02:11:45;11.70;88.80
610;DHT22;292;48.800;9.216;2023-11-19T02:14:15;11.70;88.70
610;DHT22;292;48.800;9.216;2023-11-19T02:16:42;11.70;88.70
610;DHT22;292;48.800;9.216;2023-11-19T02:19:09;11.70;88.70
610;DHT22;292;48.800;9.216;2023-11-19T02:21:36;11.60;88.80
610;DHT22;292;48.800;9.216;2023-11-19T02:24:07;11.60;89.00
610;DHT22;292;48.800;9.216;2023-11-19T02:26:40;11.60;89.40
610;DHT22;292;48.800;9.216;2023-11-19T02:29:11;11.60;89.60
610;DHT22;292;48.800;9.216;2023-11-19T02:31:39;11.70;89.30
610;DHT22;292;48.800;9.216;2023-11-19T02:34:06;11.60;89.10
610;DHT22;292;48.800;9.216;2023-11-19T02:36:33;11.70;89.40
610;DHT22;292;48.800;9.216;2023-11-19T02:39:00;11.60;89.60
610;DHT22;292;48.800;9.216;2023-11-19T02:41:27;11.60;89.60
610;DHT22;292;48.800;9.216;2023-11-19T02:43:54;11.70;89.70
610;DHT22;292;48.800;9.216;2023-11-19T02:46:23;11.70;89.90
610;DHT22;292;48.800;9.216;2023-11-19T02:48:50;11.70;90.00
610;DHT22;292;48.800;9.216;2023-11-19T02:51:17;11.70;90.00
610;DHT22;292;48.800;9.216;2023-11-19T02:53:44;11.70;90.00
610;DHT22;292;48.800;9.216;2023-11-19T02:56:13;11.70;90.00
610;DHT22;292;48.800;9.216;2023-11-19T02:58:46;11.80;90.00
610;DHT22;292;48.800;9.216;2023-11-19T03:01:23;11.80;90.10
610;DHT22;292;48.800;9.216;2023-11-19T03:03:55;11.80;90.10
610;DHT22;292;48.800;9.216;2023-11-19T03:06:22;11.80;90.00
610;DHT22;292;48.800;9.216;2023-11-19T03:08:49;11.80;90.10
610;DHT22;292;48.800;9.216;2023-11-19T03:11:16;11.80;90.20
610;DHT22;292;48.800;9.216;2023-11-19T03:13:43;11.80;90.00
610;DHT22;292;48.800;9.216;2023-11-19T03:16:10;11.80;90.00
610;DHT22;292;48.800;9.216;2023-11-19T03:18:39;11.80;90.10
610;DHT22;292;48.800;9.216;2023-11-19T03:21:06;11.80;90.10
610;DHT22;292;48.800;9.216;2023-11-19T03:23:35;11.80;90.20
610;DHT22;292;48.800;9.216;2023-11-19T03:26:02;11.80;90.20
610;DHT22;292;48.800;9.216;2023-11-19T03:28:31;11.80;90.20
610;DHT22;292;48.800;9.216;2023-11-19T03:30:58;11.80;90.20
610;DHT22;292;48.800;9.216;2023-11-19T03:33:25;11.80;90.20
610;DHT22;292;48.800;9.216;2023-11-19T03:35:56;11.80;90.40
610;DHT22;292;48.800;9.216;2023-11-19T03:38:23;11.80;90.50
610;DHT22;292;48.800;9.216;2023-11-19T03:40:50;11.90;90.50
610;DHT22;292;48.800;9.216;2023-11-19T03:43:17;11.90;90.50
610;DHT22;292;48.800;9.216;2023-11-19T03:45:45;11.90;90.40
610;DHT22;292;48.800;9.216;2023-11-19T03:48:13;11.90;90.30
610;DHT22;292;48.800;9.216;2023-11-19T03:50:41;11.90;90.50
610;DHT22;292;48.800;9.216;2023-11-19T03:53:11;11.90;90.40
610;DHT22;292;48.800;9.216;2023-11-19T03:55:39;11.90;90.50
610;DHT22;292;48.800;9.216;2023-11-19T03:58:06;11.90;90.60
610;DHT22;292;48.800;9.216;2023-11-19T04:00:33;11.90;90.50
610;DHT22;292;48.800;9.216;2023-11-19T04:03:00;11.90;90.60
610;DHT22;292;48.800;9.216;2023-11-19T04:05:27;11.90;90.70
610;DHT22;292;48.800;9.216;2023-11-19T04:07:54;12.00;90.70
610;DHT22;292;48.800;9.216;2023-11-19T04:10:22;12.00;90.70
610;DHT22;292;48.800;9.216;2023-11-19T04:12:49;12.00;90.80
610;DHT22;292;48.800;9.216;2023-11-19T04:15:17;12.00;90.80
610;DHT22;292;48.800;9.216;2023-11-19T04:17:43;12.00;90.90
610;DHT22;292;48.800;9.216;2023-11-19T04:20:11;12.00;90.90
610;DHT22;292;48.800;9.216;2023-11-19T04:22:39;12.00;91.00
610;DHT22;292;48.800;9.216;2023-11-19T04:25:07;12.00;91.00
610;DHT22;292;48.800;9.216;2023-11-19T04:27:35;12.00;91.20
610;DHT22;292;48.800;9.216;2023-11-19T04:30:03;12.10;91.10
610;DHT22;292;48.800;9.216;2023-11-19T04:32:31;12.10;91.40
610;DHT22;292;48.800;9.216;2023-11-19T04:34:58;12.20;91.40
610;DHT22;292;48.800;9.216;2023-11-19T04:37:25;12.20;91.30
610;DHT22;292;48.800;9.216;2023-11-19T04:39:52;12.30;91.20
610;DHT22;292;48.800;9.216;2023-11-19T04:42:21;12.40;91.40
610;DHT22;292;48.800;9.216;2023-11-19T04:44:52;12.40;91.40
610;DHT22;292;48.800;9.216;2023-11-19T04:47:19;12.50;91.40
610;DHT22;292;48.800;9.216;2023-11-19T04:49:46;12.60;91.30
610;DHT22;292;48.800;9.216;2023-11-19T04:52:13;12.60;91.30
610;DHT22;292;48.800;9.216;2023-11-19T04:54:41;12.70;91.20
610;DHT22;292;48.800;9.216;2023-11-19T04:57:09;12.70;91.20
610;DHT22;292;48.800;9.216;2023-11-19T04:59:37;12.80;91.20
610;DHT22;292;48.800;9.216;2023-11-19T05:02:05;12.90;91.00
610;DHT22;292;48.800;9.216;2023-11-19T05:04:32;13.00;90.90
610;DHT22;292;48.800;9.216;2023-11-19T05:06:59;13.00;90.90
610;DHT22;292;48.800;9.216;2023-11-19T05:09:26;13.10;90.60
610;DHT22;292;48.800;9.216;2023-11-19T05:11:53;13.10;90.50
610;DHT22;292;48.800;9.216;2023-11-19T05:14:20;13.20;90.50
610;DHT22;292;48.800;9.216;2023-11-19T05:16:47;13.20;90.40
610;DHT22;292;48.800;9.216;2023-11-19T05:19:15;13.30;90.20
610;DHT22;292;48.800;9.216;2023-11-19T05:21:42;13.30;90.20
610;DHT22;292;48.800;9.216;2023-11-19T05:24:10;13.40;89.90
610;DHT22;292;48.800;9.216;2023-11-19T05:26:38;13.40;89.90
610;DHT22;292;48.800;9.216;2023-11-19T05:29:06;13.40;89.70
610;DHT22;292;48.800;9.216;2023-11-19T05:31:33;13.50;89.60
610;DHT22;292;48.800;9.216;2023-11-19T05:34:00;13.50;89.60
610;DHT22;292;48.800;9.216;2023-11-19T05:36:28;13.50;89.30
610;DHT22;292;48.800;9.216;2023-11-19T05:38:55;13.50;89.30
610;DHT22;292;48.800;9.216;2023-11-19T05:41:22;13.60;89.30
610;DHT22;292;48.800;9.216;2023-11-19T05:43:49;13.60;89.10
610;DHT22;292;48.800;9.216;2023-11-19T05:46:17;13.60;88.80
610;DHT22;292;48.800;9.216;2023-11-19T05:48:44;13.70;88.70
610;DHT22;292;48.800;9.216;2023-11-19T05:51:12;13.70;88.70
610;DHT22;292;48.800;9.216;2023-11-19T05:53:42;13.70;88.60
610;DHT22;292;48.800;9.216;2023-11-19T05:56:09;13.70;88.40
610;DHT22;292;48.800;9.216;2023-11-19T05:58:36;13.70;88.40
610;DHT22;292;48.800;9.216;2023-11-19T06:01:05;13.70;88.30
610;DHT22;292;48.800;9.216;2023-11-19T06:03:33;13.70;88.40
610;DHT22;292;48.800;9.216;2023-11-19T06:06:00;13.70;88.40
610;DHT22;292;48.800;9.216;2023-11-19T06:08:27;13.80;88.30
610;DHT22;292;48.800;9.216;2023-11-19T06:10:57;13.80;88.30
610;DHT22;292;48.800;9.216;2023-11-19T06:13:28;13.80;88.10
610;DHT22;292;48.800;9.216;2023-11-19T06:15:56;13.80;88.30
610;DHT22;292;48.800;9.216;2023-11-19T06:18:23;13.80;88.10
610;DHT22;292;48.800;9.216;2023-11-19T06:20:50;13.90;88.10
610;DHT22;292;48.800;9.216;2023-11-19T06:23:17;13.90;88.00
610;DHT22;292;48.800;9.216;2023-11-19T06:25:45;13.90;88.00
610;DHT22;292;48.800;9.216;2023-11-19T06:28:13;13.90;87.80
610;DHT22;292;48.800;9.216;2023-11-19T06:30:40;13.90;87.70
610;DHT22;292;48.800;9.216;2023-11-19T06:33:08;14.00;87.50
610;DHT22;292;48.800;9.216;2023-11-19T06:35:36;14.00;87.40
610;DHT22;292;48.800;9.216;2023-11-19T06:38:03;14.00;87.30
610;DHT22;292;48.800;9.216;2023-11-19T06:40:31;13.90;87.40
610;DHT22;292;48.800;9.216;2023-11-19T06:42:58;14.00;87.40
610;DHT22;292;48.800;9.216;2023-11-19T06:45:26;14.00;87.40
610;DHT22;292;48.800;9.216;2023-11-19T06:47:53;14.00;87.30
610;DHT22;292;48.800;9.216;2023-11-19T06:50:20;14.00;87.30
610;DHT22;292;48.800;9.216;2023-11-19T06:52:47;14.00;87.30
610;DHT22;292;48.800;9.216;2023-11-19T06:55:15;14.00;87.40
610;DHT22;292;48.800;9.216;2023-11-19T06:57:42;14.00;87.40
610;DHT22;292;48.800;9.216;2023-11-19T07:00:10;14.00;87.30
610;DHT22;292;48.800;9.216;2023-11-19T07:02:39;14.00;87.40
610;DHT22;292;48.800;9.216;2023-11-19T07:05:06;14.10;87.50
610;DHT22;292;48.800;9.216;2023-11-19T07:07:33;14.10;87.40
610;DHT22;292;48.800;9.216;2023-11-19T07:10:01;14.10;87.50
610;DHT22;292;48.800;9.216;2023-11-19T07:12:30;14.10;87.30
610;DHT22;292;48.800;9.216;2023-11-19T07:14:57;14.10;87.30
610;DHT22;292;48.800;9.216;2023-11-19T07:17:24;14.10;87.30
610;DHT22;292;48.800;9.216;2023-11-19T07:19:52;14.10;87.00
610;DHT22;292;48.800;9.216;2023-11-19T07:22:20;14.10;86.80
610;DHT22;292;48.800;9.216;2023-11-19T07:24:47;14.10;87.00
610;DHT22;292;48.800;9.216;2023-11-19T07:27:14;14.20;86.80
610;DHT22;292;48.800;9.216;2023-11-19T07:29:43;14.10;86.80
610;DHT22;292;48.800;9.216;2023-11-19T07:32:10;14.20;86.80
610;DHT22;292;48.800;9.216;2023-11-19T07:34:39;14.20;86.80
610;DHT22;292;48.800;9.216;2023-11-19T07:37:08;14.20;86.50
610;DHT22;292;48.800;9.216;2023-11-19T07:39:35;14.20;86.40
610;DHT22;292;48.800;9.216;2023-11-19T07:42:03;14.20;86.50
610;DHT22;292;48.800;9.216;2023-11-19T07:44:30;14.20;86.50
610;DHT22;292;48.800;9.216;2023-11-19T07:46:57;14.20;86.50
610;DHT22;292;48.800;9.216;2023-11-19T07:49:25;14.20;86.50
610;DHT22;292;48.800;9.216;2023-11-19T07:51:52;14.30;86.50
610;DHT22;292;48.800;9.216;2023-11-19T07:54:20;14.30;86.40
610;DHT22;292;48.800;9.216;2023-11-19T07:56:48;14.40;86.10
610;DHT22;292;48.800;9.216;2023-11-19T07:59:16;14.40;86.10
610;DHT22;292;48.800;9.216;2023-11-19T08:01:43;14.40;86.00
610;DHT22;292;48.800;9.216;2023-11-19T08:04:10;14.40;86.00
610;DHT22;292;48.800;9.216;2023-11-19T08:06:37;14.40;85.80
610;DHT22;292;48.800;9.216;2023-11-19T08:09:04;14.40;85.70
610;DHT22;292;48.800;9.216;2023-11-19T08:11:33;14.40;85.70
610;DHT22;292;48.800;9.216;2023-11-19T08:14:00;14.40;85.80
610;DHT22;292;48.800;9.216;2023-11-19T08:16:28;14.50;85.70
610;DHT22;292;48.800;9.216;2023-11-19T08:18:55;14.50;85.70
610;DHT22;292;48.800;9.216;2023-11-19T08:21:24;14.50;85.70
610;DHT22;292;48.800;9.216;2023-11-19T08:23:52;14.50;85.50
610;DHT22;292;48.800;9.216;2023-11-19T08:26:19;14.60;85.40
610;DHT22;292;48.800;9.216;2023-11-19T08:28:48;14.60;85.40
610;DHT22;292;48.800;9.216;2023-11-19T08:31:15;14.60;85.20
610;DHT22;292;48.800;9.216;2023-11-19T08:33:42;14.60;85.20
610;DHT22;292;48.800;9.216;2023-11-19T08:36:09;14.60;85.20
610;DHT22;292;48.800;9.216;2023-11-19T08:38:41;14.60;85.10
610;DHT22;292;48.800;9.216;2023-11-19T08:41:08;14.60;85.40
610;DHT22;292;48.800;9.216;2023-11-19T08:43:36;14.70;85.40
610;DHT22;292;48.800;9.216;2023-11-19T08:46:09;14.70;85.20
610;DHT22;292;48.800;9.216;2023-11-19T08:48:38;14.80;85.40
610;DHT22;292;48.800;9.216;2023-11-19T08:51:05;14.90;85.20
610;DHT22;292;48.800;9.216;2023-11-19T08:53:32;15.00;84.90
610;DHT22;292;48.800;9.216;2023-11-19T08:55:59;15.00;84.90
610;DHT22;292;48.800;9.216;2023-11-19T08:58:28;15.10;84.40
610;DHT22;292;48.800;9.216;2023-11-19T09:00:56;15.10;84.20
610;DHT22;292;48.800;9.216;2023-11-19T09:03:24;15.10;83.90
610;DHT22;292;48.800;9.216;2023-11-19T09:05:52;15.20;83.80
610;DHT22;292;48.800;9.216;2023-11-19T09:08:19;15.20;83.60
610;DHT22;292;48.800;9.216;2023-11-19T09:10:46;15.20;83.80
610;DHT22;292;48.800;9.216;2023-11-19T09:13:12;15.30;83.90
610;DHT22;292;48.800;9.216;2023-11-19T09:15:40;15.40;84.10
610;DHT22;292;48.800;9.216;2023-11-19T09:18:07;15.50;83.90
610;DHT22;292;48.800;9.216;2023-11-19T09:20:36;15.60;83.40
610;DHT22;292;48.800;9.216;2023-11-19T09:23:04;15.70;83.10
610;DHT22;292;48.800;9.216;2023-11-19T09:25:31;15.70;82.60
610;DHT22;292;48.800;9.216;2023-11-19T09:27:58;15.80;82.40
610;DHT22;292;48.800;9.216;2023-11-19T09:30:25;15.90;81.90
610;DHT22;292;48.800;9.216;2023-11-19T09:32:52;15.90;81.40
610;DHT22;292;48.800;9.216;2023-11-19T09:35:19;15.90;81.30
610;DHT22;292;48.800;9.216;2023-11-19T09:37:48;15.80;81.30
610;DHT22;292;48.800;9.216;2023-11-19T09:40:15;15.90;81.40
610;DHT22;292;48.800;9.216;2023-11-19T09:42:44;15.90;81.30
610;DHT22;292;48.800;9.216;2023-11-19T09:45:13;16.00;81.40
610;DHT22;292;48.800;9.216;2023-11-19T09:47:44;16.00;81.00
610;DHT22;292;48.800;9.216;2023-11-19T09:50:16;16.10;80.70
610;DHT22;292;48.800;9.216;2023-11-19T09:52:43;16.20;80.60
610;DHT22;292;48.800;9.216;2023-11-19T09:55:12;16.30;80.60
610;DHT22;292;48.800;9.216;2023-11-19T09:57:40;16.50;80.00
610;DHT22;292;48.800;9.216;2023-11-19T10:00:15;16.70;79.60
610;DHT22;292;48.800;9.216;2023-11-19T10:02:44;16.90;78.70
610;DHT22;292;48.800;9.216;2023-11-19T10:05:13;17.10;78.40
610;DHT22;292;48.800;9.216;2023-11-19T10:07:40;17.30;78.30
610;DHT22;292;48.800;9.216;2023-11-19T10:10:08;17.50;77.40
610;DHT22;292;48.800;9.216;2023-11-19T10:12:41;17.60;76.00
610;DHT22;292;48.800;9.216;2023-11-19T10:15:10;17.80;74.50
610;DHT22;292;48.800;9.216;2023-11-19T10:17:44;17.90;73.50
610;DHT22;292;48.800;9.216;2023-11-19T10:20:11;18.00;72.80
610;DHT22;292;48.800;9.216;2023-11-19T10:22:38;18.00;72.50
610;DHT22;292;48.800;9.216;2023-11-19T10:25:05;18.00;72.50
610;DHT22;292;48.800;9.216;2023-11-19T10:27:49;18.00;72.50
610;DHT22;292;48.800;9.216;2023-11-19T10:30:18;18.00;72.20
610;DHT22;292;48.800;9.216;2023-11-19T10:32:45;18.00;72.20
610;DHT22;292;48.800;9.216;2023-11-19T10:35:12;18.00;72.50
610;DHT22;292;48.800;9.216;2023-11-19T10:37:39;17.90;72.60
610;DHT22;292;48.800;9.216;2023-11-19T10:40:07;17.90;72.50
610;DHT22;292;48.800;9.216;2023-11-19T10:42:35;17.80;72.80
610;DHT22;292;48.800;9.216;2023-11-19T10:45:21;17.80;72.80
610;DHT22;292;48.800;9.216;2023-11-19T10:47:51;17.70;73.40
610;DHT22;292;48.800;9.216;2023-11-19T10:50:18;17.70;73.80
610;DHT22;292;48.800;9.216;2023-11-19T10:52:46;17.70;73.90
610;DHT22;292;48.800;9.216;2023-11-19T10:55:15;17.80;73.40
610;DHT22;292;48.800;9.216;2023-11-19T10:57:47;17.90;73.10
610;DHT22;292;48.800;9.216;2023-11-19T11:00:19;18.00;72.40
610;DHT22;292;48.800;9.216;2023-11-19T11:02:59;18.10;70.90
610;DHT22;292;48.800;9.216;2023-11-19T11:05:27;18.10;70.00
610;DHT22;292;48.800;9.216;2023-11-19T11:07:56;18.10;68.60
610;DHT22;292;48.800;9.216;2023-11-19T11:10:25;18.10;68.00
610;DHT22;292;48.800;9.216;2023-11-19T11:12:55;18.20;67.70
610;DHT22;292;48.800;9.216;2023-11-19T11:15:27;18.20;67.70
610;DHT22;292;48.800;9.216;2023-11-19T11:17:59;18.20;67.60
610;DHT22;292;48.800;9.216;2023-11-19T11:20:27;18.20;67.30
610;DHT22;292;48.800;9.216;2023-11-19T11:23:35;18.20;66.60
610;DHT22;292;48.800;9.216;2023-11-19T11:26:24;18.10;65.70
610;DHT22;292;48.800;9.216;2023-11-19T11:29:00;18.00;65.10
610;DHT22;292;48.800;9.216;2023-11-19T11:31:39;18.00;64.70
610;DHT22;292;48.800;9.216;2023-11-19T11:34:31;17.90;64.40
610;DHT22;292;48.800;9.216;2023-11-19T11:37:10;17.90;64.40
610;DHT22;292;48.800;9.216;2023-11-19T11:39:40;17.80;64.40
610;DHT22;292;48.800;9.216;2023-11-19T11:42:33;17.80;64.40
610;DHT22;292;48.800;9.216;2023-11-19T11:45:02;17.70;64.00
610;DHT22;292;48.800;9.216;2023-11-19T11:50:34;17.70;63.80
610;DHT22;292;48.800;9.216;2023-11-19T11:53:16;17.70;63.70
610;DHT22;292;48.800;9.216;2023-11-19T11:55:55;17.70;63.80
610;DHT22;292;48.800;9.216;2023-11-19T11:58:36;17.60;63.80
610;DHT22;292;48.800;9.216;2023-11-19T12:01:07;17.60;64.00
610;DHT22;292;48.800;9.216;2023-11-19T12:03:37;17.60;64.10
610;DHT22;292;48.800;9.216;2023-11-19T12:06:07;17.70;64.30
610;DHT22;292;48.800;9.216;2023-11-19T12:08:35;17.70;64.60
610;DHT22;292;48.800;9.216;2023-11-19T12:11:03;17.70;64.60
610;DHT22;292;48.800;9.216;2023-11-19T12:13:46;17.70;64.10
610;DHT22;292;48.800;9.216;2023-11-19T12:16:15;17.70;64.10
610;DHT22;292;48.800;9.216;2023-11-19T12:18:42;17.80;64.10
610;DHT22;292;48.800;9.216;2023-11-19T12:21:11;17.80;64.30
610;DHT22;292;48.800;9.216;2023-11-19T12:23:54;17.90;63.80
610;DHT22;292;48.800;9.216;2023-11-19T12:26:39;18.00;63.40
610;DHT22;292;48.800;9.216;2023-11-19T12:29:06;18.00;62.50
610;DHT22;292;48.800;9.216;2023-11-19T12:31:34;18.10;61.40
610;DHT22;292;48.800;9.216;2023-11-19T12:34:09;18.10;60.70
610;DHT22;292;48.800;9.216;2023-11-19T12:36:42;18.10;60.10
610;DHT22;292;48.800;9.216;2023-11-19T12:39:09;18.10;58.60
610;DHT22;292;48.800;9.216;2023-11-19T12:41:52;18.10;58.60
610;DHT22;292;48.800;9.216;2023-11-19T12:44:20;18.20;58.20
610;DHT22;292;48.800;9.216;2023-11-19T12:47:01;18.30;57.80
610;DHT22;292;48.800;9.216;2023-11-19T12:49:28;18.30;57.30
610;DHT22;292;48.800;9.216;2023-11-19T12:51:57;18.40;57.30
610;DHT22;292;48.800;9.216;2023-11-19T12:54:34;18.40;56.90
610;DHT22;292;48.800;9.216;2023-11-19T12:57:03;18.40;57.20
610;DHT22;292;48.800;9.216;2023-11-19T12:59:30;18.50;57.20
610;DHT22;292;48.800;9.216;2023-11-19T13:01:57;18.50;56.90
610;DHT22;292;48.800;9.216;2023-11-19T13:04:28;18.60;56.60
610;DHT22;292;48.800;9.216;2023-11-19T13:06:57;18.60;56.20
610;DHT22;292;48.800;9.216;2023-11-19T13:09:25;18.70;56.20
610;DHT22;292;48.800;9.216;2023-11-19T13:11:52;18.70;56.10
610;DHT22;292;48.800;9.216;2023-11-19T13:14:22;18.80;55.80
610;DHT22;292;48.800;9.216;2023-11-19T13:16:50;18.80;56.00
610;DHT22;292;48.800;9.216;2023-11-19T13:19:19;18.90;55.80
610;DHT22;292;48.800;9.216;2023-11-19T13:21:49;19.00;55.40
610;DHT22;292;48.800;9.216;2023-11-19T13:24:17;19.10;55.40
610;DHT22;292;48.800;9.216;2023-11-19T13:26:44;19.20;54.90
610;DHT22;292;48.800;9.216;2023-11-19T13:29:11;19.30;53.60
610;DHT22;292;48.800;9.216;2023-11-19T13:31:38;19.10;52.90
610;DHT22;292;48.800;9.216;2023-11-19T13:34:05;19.00;52.80
610;DHT22;292;48.800;9.216;2023-11-19T13:36:33;18.90;52.60
610;DHT22;292;48.800;9.216;2023-11-19T13:39:01;18.80;52.60
610;DHT22;292;48.800;9.216;2023-11-19T13:41:29;18.70;53.20
610;DHT22;292;48.800;9.216;2023-11-19T13:43:56;18.70;53.20
610;DHT22;292;48.800;9.216;2023-11-19T13:46:24;18.60;52.90
610;DHT22;292;48.800;9.216;2023-11-19T13:48:51;18.50;53.20
610;DHT22;292;48.800;9.216;2023-11-19T13:51:18;18.50;53.70
610;DHT22;292;48.800;9.216;2023-11-19T13:53:45;18.50;53.70
610;DHT22;292;48.800;9.216;2023-11-19T13:56:12;18.50;54.10
610;DHT22;292;48.800;9.216;2023-11-19T13:58:40;18.50;54.20
610;DHT22;292;48.800;9.216;2023-11-19T14:01:07;18.50;54.20
610;DHT22;292;48.800;9.216;2023-11-19T14:03:35;18.50;53.70
610;DHT22;292;48.800;9.216;2023-11-19T14:06:02;18.60;53.30
610;DHT22;292;48.800;9.216;2023-11-19T14:08:29;18.60;52.40
610;DHT22;292;48.800;9.216;2023-11-19T14:10:56;18.60;52.50
610;DHT22;292;48.800;9.216;2023-11-19T14:13:24;18.50;52.50
610;DHT22;292;48.800;9.216;2023-11-19T14:15:52;18.40;52.10
610;DHT22;292;48.800;9.216;2023-11-19T14:18:20;18.40;51.70
610;DHT22;292;48.800;9.216;2023-11-19T14:20:47;18.30;51.00
610;DHT22;292;48.800;9.216;2023-11-19T14:23:14;18.10;51.00
610;DHT22;292;48.800;9.216;2023-11-19T14:25:41;18.10;51.30
610;DHT22;292;48.800;9.216;2023-11-19T14:28:07;18.10;51.70
610;DHT22;292;48.800;9.216;2023-11-19T14:30:35;18.00;51.70
610;DHT22;292;48.800;9.216;2023-11-19T14:33:03;18.00;51.30
610;DHT22;292;48.800;9.216;2023-11-19T14:35:30;18.00;51.70
610;DHT22;292;48.800;9.216;2023-11-19T14:37:58;17.90;52.10
610;DHT22;292;48.800;9.216;2023-11-19T14:40:25;17.90;52.20
610;DHT22;292;48.800;9.216;2023-11-19T14:42:52;17.90;52.50
610;DHT22;292;48.800;9.216;2023-11-19T14:45:19;17.90;53.00
610;DHT22;292;48.800;9.216;2023-11-19T14:47:47;17.80;53.20
610;DHT22;292;48.800;9.216;2023-11-19T14:50:16;17.80;53.40
610;DHT22;292;48.800;9.216;2023-11-19T14:52:43;17.80;53.60
610;DHT22;292;48.800;9.216;2023-11-19T14:55:10;17.70;53.70
610;DHT22;292;48.800;9.216;2023-11-19T14:57:37;17.70;53.80
610;DHT22;292;48.800;9.216;2023-11-19T15:00:08;17.70;54.00
610;DHT22;292;48.800;9.216;2023-11-19T15:02:39;17.60;54.40
610;DHT22;292;48.800;9.216;2023-11-19T15:05:07;17.60;54.10
610;DHT22;292;48.800;9.216;2023-11-19T15:07:36;17.60;54.40
610;DHT22;292;48.800;9.216;2023-11-19T15:10:04;17.50;54.80
610;DHT22;292;48.800;9.216;2023-11-19T15:12:35;17.40;54.80
610;DHT22;292;48.800;9.216;2023-11-19T15:15:07;17.40;55.40
610;DHT22;292;48.800;9.216;2023-11-19T15:17:35;17.30;55.40
610;DHT22;292;48.800;9.216;2023-11-19T15:20:03;17.30;55.40
610;DHT22;292;48.800;9.216;2023-11-19T15:22:31;17.20;55.40
610;DHT22;292;48.800;9.216;2023-11-19T15:24:59;17.20;55.30
610;DHT22;292;48.800;9.216;2023-11-19T15:27:27;17.10;55.20
610;DHT22;292;48.800;9.216;2023-11-19T15:29:54;17.10;55.20
610;DHT22;292;48.800;9.216;2023-11-19T15:32:21;17.00;55.00
610;DHT22;292;48.800;9.216;2023-11-19T15:34:48;16.90;54.90
610;DHT22;292;48.800;9.216;2023-11-19T15:37:15;16.90;54.80
610;DHT22;292;48.800;9.216;2023-11-19T15:39:42;16.90;55.20
610;DHT22;292;48.800;9.216;2023-11-19T15:42:11;16.90;55.60
610;DHT22;292;48.800;9.216;2023-11-19T15:44:38;16.80;55.70
610;DHT22;292;48.800;9.216;2023-11-19T15:47:06;16.80;56.00
610;DHT22;292;48.800;9.216;2023-11-19T15:49:33;16.80;56.10
610;DHT22;292;48.800;9.216;2023-11-19T15:52:01;16.80;56.10
610;DHT22;292;48.800;9.216;2023-11-19T15:54:29;16.70;56.40
610;DHT22;292;48.800;9.216;2023-11-19T15:57:03;16.70;56.40
610;DHT22;292;48.800;9.216;2023-11-19T15:59:31;16.70;56.40
610;DHT22;292;48.800;9.216;2023-11-19T16:01:58;16.70;56.80
610;DHT22;292;48.800;9.216;2023-11-19T16:04:25;16.60;57.00
610;DHT22;292;48.800;9.216;2023-11-19T16:06:52;16.60;57.00
610;DHT22;292;48.800;9.216;2023-11-19T16:09:19;16.60;57.30
610;DHT22;292;48.800;9.216;2023-11-19T16:11:47;16.50;57.30
610;DHT22;292;48.800;9.216;2023-11-19T16:14:15;16.50;57.40
610;DHT22;292;48.800;9.216;2023-11-19T16:16:45;16.50;57.60
610;DHT22;292;48.800;9.216;2023-11-19T16:19:12;16.50;57.80
610;DHT22;292;48.800;9.216;2023-11-19T16:21:41;16.40;57.80
610;DHT22;292;48.800;9.216;2023-11-19T16:24:11;16.40;57.80
610;DHT22;292;48.800;9.216;2023-11-19T16:26:38;16.40;58.20
610;DHT22;292;48.800;9.216;2023-11-19T16:29:06;16.40;58.20
610;DHT22;292;48.800;9.216;2023-11-19T16:31:35;16.30;58.40
610;DHT22;292;48.800;9.216;2023-11-19T16:34:09;16.30;58.50
610;DHT22;292;48.800;9.216;2023-11-19T16:36:37;16.30;58.50
610;DHT22;292;48.800;9.216;2023-11-19T16:39:04;16.30;58.60
610;DHT22;292;48.800;9.216;2023-11-19T16:41:34;16.30;58.60
610;DHT22;292;48.800;9.216;2023-11-19T16:44:04;16.30;58.80
610;DHT22;292;48.800;9.216;2023-11-19T16:46:33;16.30;58.80